Time;durP1;ratioP1;P1;durP2;ratioP2;P2;SDS_P1;SDS_P2;PMS_P1;PMS_P2;Temp;Humidity;BMP_temperature;BMP_pressure;BME280_temperature;BME280_humidity;BME280_pressure;Samples;Min_cycle;Max_cycle;Signal;HPM_P1;HPM_P2
2021/09/06 00:02:13;;;;;;;5.15;3.63;;;14.00;63.20;;;13.50;47.95;95683.88;5027572;28;20204;-79
2021/09/06 00:04:41;;;;;;;5.50;3.85;;;13.90;63.20;;;13.47;47.52;95685.09;5010952;28;20682;-79
2021/09/06 00:07:08;;;;;;;5.65;3.97;;;13.90;63.10;;;13.44;48.02;95681.00;5011317;28;20279;-79
2021/09/06 00:09:36;;;;;;;6.93;4.00;;;13.90;63.20;;;13.43;47.89;95684.66;5010897;28;20250;-79
2021/09/06 00:12:03;;;;;;;5.22;3.70;;;13.80;63.30;;;13.39;48.27;95679.94;5010974;28;20221;-79
2021/09/06 00:14:30;;;;;;;7.03;4.30;;;13.80;63.30;;;13.37;48.07;95681.94;5011445;28;20197;-79
2021/09/06 00:16:58;;;;;;;7.43;3.92;;;13.80;63.50;;;13.33;48.11;95675.41;5011160;28;20229;-79
2021/09/06 00:19:25;;;;;;;6.05;4.05;;;13.80;63.50;;;13.31;48.26;95675.59;5011273;28;20200;-79
2021/09/06 00:21:53;;;;;;;4.43;3.30;;;13.70;63.40;;;13.26;48.38;95681.44;5011137;28;20220;-79
2021/09/06 00:24:20;;;;;;;5.97;3.60;;;13.70;63.50;;;13.21;48.51;95673.28;5010827;28;20282;-79
2021/09/06 00:26:48;;;;;;;5.93;3.80;;;13.80;63.60;;;13.22;48.40;95680.19;4994924;28;20217;-79
2021/09/06 00:29:15;;;;;;;5.85;3.67;;;13.70;63.60;;;13.18;48.18;95675.47;5004580;28;20697;-77
2021/09/06 00:31:42;;;;;;;5.70;3.20;;;13.60;63.50;;;13.18;48.49;95684.19;4994543;28;20232;-78
2021/09/06 00:34:11;;;;;;;4.65;3.40;;;13.60;63.60;;;13.15;48.47;95678.50;4994959;28;20708;-79
2021/09/06 00:36:38;;;;;;;5.10;3.50;;;13.60;63.70;;;13.14;48.51;95685.59;4995101;28;20213;-79
2021/09/06 00:39:05;;;;;;;4.40;3.58;;;13.50;63.60;;;13.09;48.53;95674.81;5010588;28;20201;-79
2021/09/06 00:41:33;;;;;;;4.88;3.38;;;13.50;63.70;;;13.10;48.67;95685.16;5019673;28;20229;-79
2021/09/06 00:44:02;;;;;;;6.95;3.35;;;13.50;63.80;;;13.07;48.49;95679.44;4980581;28;20233;-79
2021/09/06 00:46:30;;;;;;;5.43;3.78;;;13.50;63.70;;;13.04;48.70;95678.00;4978159;28;20221;-78
2021/09/06 00:48:58;;;;;;;4.88;3.58;;;13.50;63.80;;;13.03;48.79;95676.34;5012210;28;20203;-79
2021/09/06 00:51:25;;;;;;;5.18;3.72;;;13.40;63.80;;;13.01;48.65;95681.03;5018054;28;20289;-79
2021/09/06 00:53:52;;;;;;;7.63;3.15;;;13.40;63.80;;;12.99;48.64;95677.75;5033286;28;20611;-79
2021/09/06 00:56:19;;;;;;;7.30;3.80;;;13.40;63.90;;;12.96;48.91;95678.13;5017863;28;20650;-79
2021/09/06 00:58:47;;;;;;;6.75;3.42;;;13.30;63.90;;;12.91;48.90;95676.03;5001705;28;20196;-79
2021/09/06 01:01:14;;;;;;;4.68;3.30;;;13.30;64.00;;;12.91;48.85;95678.66;5013572;28;20217;-79
2021/09/06 01:03:43;;;;;;;5.18;3.60;;;13.30;64.00;;;12.90;48.98;95678.88;5014145;28;20197;-79
2021/09/06 01:06:24;;;;;;;4.28;3.08;;;13.30;64.00;;;12.89;48.81;95677.22;5014146;28;20587;-79
2021/09/06 01:09:07;;;;;;;4.97;3.60;;;13.30;64.00;;;12.84;48.85;95677.81;5026316;28;20204;-79
2021/09/06 01:11:57;;;;;;;7.57;3.58;;;13.30;64.10;;;12.82;48.95;95679.81;5037475;28;20311;-79
2021/09/06 01:14:29;;;;;;;5.82;3.55;;;13.30;64.20;;;12.80;48.89;95682.63;5018256;28;20231;-79
2021/09/06 01:16:57;;;;;;;4.63;3.20;;;13.20;64.10;;;12.76;49.17;95676.09;5033816;28;20258;-79
2021/09/06 01:19:24;;;;;;;4.43;3.38;;;13.20;64.20;;;12.75;49.04;95679.72;5021141;28;20596;-79
2021/09/06 01:21:55;;;;;;;3.92;3.15;;;13.20;64.20;;;12.72;49.18;95681.91;5014321;28;20225;-79
2021/09/06 01:24:42;;;;;;;4.78;3.38;;;13.20;64.20;;;12.64;49.05;95672.31;5013496;28;20213;-78
2021/09/06 01:27:17;;;;;;;4.03;3.22;;;13.20;64.30;;;12.64;48.85;95682.84;5018295;28;20197;-79
2021/09/06 01:29:45;;;;;;;4.93;3.30;;;13.10;64.30;;;12.61;49.48;95684.03;5033277;28;20203;-79
2021/09/06 01:32:15;;;;;;;4.75;3.35;;;13.00;64.40;;;12.59;49.34;95685.22;5016643;28;20204;-79
2021/09/06 01:34:46;;;;;;;4.10;3.33;;;13.00;64.30;;;12.57;49.41;95688.06;5033315;28;20238;-79
2021/09/06 01:37:14;;;;;;;6.00;4.03;;;13.00;64.30;;;12.54;49.66;95677.88;5016906;28;20642;-79
2021/09/06 01:39:50;;;;;;;5.57;3.42;;;13.00;64.40;;;12.50;49.60;95681.91;5019591;28;20304;-79
2021/09/06 01:42:17;;;;;;;5.35;3.25;;;12.90;64.50;;;12.48;49.61;95683.88;5001158;28;20251;-79
2021/09/06 01:44:44;;;;;;;5.80;3.60;;;13.00;64.70;;;12.44;49.65;95675.53;5013045;28;20312;-78
2021/09/06 01:47:17;;;;;;;4.53;3.25;;;12.90;64.60;;;12.44;49.83;95677.38;4997788;28;20205;-78
2021/09/06 01:49:44;;;;;;;5.97;3.60;;;12.90;64.70;;;12.41;49.84;95673.25;4997891;28;20204;-78
2021/09/06 01:52:12;;;;;;;4.78;3.90;;;12.90;64.80;;;12.39;49.78;95672.66;4981011;28;20715;-78
2021/09/06 01:54:39;;;;;;;5.00;3.47;;;12.90;64.80;;;12.38;50.02;95668.38;4996928;28;20268;-78
2021/09/06 01:57:08;;;;;;;4.47;3.40;;;12.80;64.80;;;12.36;49.70;95667.75;4980940;28;20227;-79
2021/09/06 01:59:36;;;;;;;6.55;3.67;;;12.80;64.80;;;12.34;49.92;95669.78;5012438;28;20694;-78
2021/09/06 02:02:04;;;;;;;4.68;3.28;;;12.80;64.90;;;12.30;50.04;95674.59;5013136;28;20216;-78
2021/09/06 02:04:38;;;;;;;4.55;3.50;;;12.80;65.00;;;12.29;50.03;95675.56;5014113;28;20288;-78
2021/09/06 02:07:06;;;;;;;4.68;3.42;;;12.70;64.90;;;12.27;50.07;95677.56;5012779;28;20218;-78
2021/09/06 02:09:34;;;;;;;7.10;3.75;;;12.70;65.00;;;12.24;50.12;95680.56;5023394;28;20579;-77
2021/09/06 02:12:05;;;;;;;4.38;3.60;;;12.70;65.00;;;12.19;50.32;95675.03;5033086;28;20224;-77
2021/09/06 02:14:35;;;;;;;4.22;3.30;;;12.70;65.00;;;12.22;50.31;95681.72;5014270;28;20208;-78
2021/09/06 02:17:03;;;;;;;4.72;3.40;;;12.70;65.10;;;12.17;50.39;95680.47;5012977;28;20229;-78
2021/09/06 02:19:36;;;;;;;4.47;3.10;;;12.70;65.20;;;12.16;50.31;95681.47;5010872;28;20263;-79
2021/09/06 02:22:04;;;;;;;6.25;3.25;;;12.60;65.10;;;12.14;50.29;95680.03;5026872;28;20698;-78
2021/09/06 02:24:48;;;;;;;4.00;3.17;;;12.60;65.30;;;12.11;50.37;95689.09;5017908;28;20765;-78
2021/09/06 02:27:21;;;;;;;5.57;3.50;;;12.60;65.20;;;12.09;50.37;95682.38;5007213;28;20602;-77
2021/09/06 02:29:49;;;;;;;5.28;3.38;;;12.60;65.20;;;12.09;50.34;95690.28;4990860;28;20190;-79
2021/09/06 02:32:21;;;;;;;4.32;3.15;;;12.50;65.20;;;12.07;50.46;95690.47;5006279;28;20212;-78
2021/09/06 02:35:07;;;;;;;4.15;3.05;;;12.60;65.30;;;12.03;50.44;95680.50;5021729;28;20431;-79
2021/09/06 02:37:35;;;;;;;5.00;3.17;;;12.50;65.30;;;11.99;50.63;95678.22;5002135;28;20189;-78
2021/09/06 02:40:05;;;;;;;4.80;3.20;;;12.50;65.30;;;11.98;50.82;95689.72;5005223;28;20203;-79
2021/09/06 02:42:32;;;;;;;5.65;3.85;;;12.40;65.30;;;11.97;50.52;95682.84;5039040;28;20212;-78
2021/09/06 02:45:00;;;;;;;5.65;3.53;;;12.40;65.30;;;11.94;50.36;95683.16;5005744;28;20223;-78
2021/09/06 02:47:29;;;;;;;4.47;3.30;;;12.50;65.50;;;11.93;50.69;95684.16;5020115;28;20667;-78
2021/09/06 02:49:58;;;;;;;4.07;3.15;;;12.40;65.50;;;11.91;50.90;95680.09;5006075;28;20228;-78
2021/09/06 02:52:26;;;;;;;4.25;3.20;;;12.40;65.50;;;11.90;51.28;95683.72;5009208;28;20224;-78
2021/09/06 02:54:53;;;;;;;4.72;3.22;;;12.40;65.60;;;11.88;50.84;95680.44;5019389;28;20201;-79
2021/09/06 02:57:21;;;;;;;4.85;3.15;;;12.30;65.60;;;11.84;50.73;95682.63;5028321;28;20203;-78
2021/09/06 02:59:49;;;;;;;3.33;3.03;;;12.40;65.70;;;11.82;50.85;95679.38;5022141;28;20196;-78
2021/09/06 03:02:18;;;;;;;6.22;3.65;;;12.30;65.70;;;11.79;51.18;95679.72;5029253;28;20217;-78
2021/09/06 03:04:47;;;;;;;4.93;3.35;;;12.20;65.60;;;11.76;51.17;95675.63;5019814;28;20189;-77
2021/09/06 03:07:14;;;;;;;4.00;3.28;;;12.20;65.60;;;11.74;51.08;95671.56;5018180;28;20590;-79
2021/09/06 03:09:42;;;;;;;4.95;3.30;;;12.20;65.70;;;11.72;51.25;95677.00;5028243;28;20283;-77
2021/09/06 03:12:09;;;;;;;5.13;3.20;;;12.20;65.70;;;11.69;51.21;95666.84;5002782;28;20223;-79
2021/09/06 03:14:42;;;;;;;4.47;3.20;;;12.10;65.60;;;11.66;51.11;95668.00;5030467;28;20200;-78
2021/09/06 03:17:09;;;;;;;4.80;3.30;;;12.20;65.80;;;11.63;51.26;95663.13;5005290;28;20215;-78
2021/09/06 03:19:37;;;;;;;4.47;3.35;;;12.10;65.90;;;11.62;51.19;95666.75;5010980;28;20424;-78
2021/09/06 03:22:07;;;;;;;4.97;3.40;;;12.10;65.90;;;11.60;51.35;95666.09;5028611;28;20217;-78
2021/09/06 03:24:35;;;;;;;5.20;3.88;;;12.10;65.90;;;11.58;51.50;95665.47;5004347;28;20204;-79
2021/09/06 03:27:03;;;;;;;4.70;3.38;;;12.10;65.90;;;11.52;51.59;95656.50;5030057;28;20278;-78
2021/09/06 03:29:30;;;;;;;4.78;3.40;;;12.00;65.90;;;11.51;51.50;95654.88;5004365;28;20647;-78
2021/09/06 03:31:59;;;;;;;5.95;3.60;;;12.00;65.90;;;11.50;51.52;95658.47;5018050;28;20216;-78
2021/09/06 03:34:30;;;;;;;4.25;3.05;;;12.00;66.10;;;11.49;51.60;95653.41;5009982;28;20201;-78
2021/09/06 03:36:59;;;;;;;5.45;3.55;;;12.00;66.10;;;11.49;51.58;95661.28;5020683;28;20235;-78
2021/09/06 03:39:26;;;;;;;7.75;4.53;;;11.90;66.10;;;11.46;51.85;95648.50;4999718;28;20280;-78
2021/09/06 03:41:53;;;;;;;4.35;3.38;;;11.90;66.30;;;11.44;51.76;95648.69;4987771;28;20236;-78
2021/09/06 03:44:26;;;;;;;6.38;3.65;;;12.00;66.30;;;11.43;51.76;95649.69;5019145;28;20251;-77
2021/09/06 03:46:54;;;;;;;5.55;3.00;;;11.90;66.30;;;11.41;51.86;95651.66;5017821;28;20232;-77
2021/09/06 03:49:24;;;;;;;5.28;3.35;;;11.90;66.30;;;11.38;51.99;95649.41;5017471;28;20197;-78
2021/09/06 03:51:52;;;;;;;6.32;3.35;;;11.90;66.40;;;11.37;51.83;95653.03;5004578;28;20311;-79
2021/09/06 03:54:19;;;;;;;5.80;3.60;;;11.80;66.30;;;11.33;51.96;95651.75;4991794;28;20200;-80
2021/09/06 03:56:47;;;;;;;3.97;3.28;;;11.80;66.30;;;11.27;52.07;95652.47;5012777;28;20700;-78
2021/09/06 03:59:14;;;;;;;4.95;3.53;;;11.80;66.40;;;11.27;52.03;95653.28;5012043;28;20515;-79
2021/09/06 04:01:46;;;;;;;4.22;3.45;;;11.80;66.40;;;11.24;51.96;95658.06;4982665;28;20225;-79
2021/09/06 04:04:16;;;;;;;4.38;3.03;;;11.70;66.40;;;11.21;52.24;95660.03;5010062;28;20197;-79
2021/09/06 04:06:44;;;;;;;6.28;3.38;;;11.70;66.40;;;11.16;52.08;95654.50;5010255;28;20259;-79
2021/09/06 04:09:15;;;;;;;4.85;3.38;;;11.70;66.50;;;11.14;51.99;95653.88;5013749;28;20200;-79
2021/09/06 04:11:43;;;;;;;4.95;3.50;;;11.70;66.60;;;11.13;52.13;95654.88;5014255;28;20244;-79
2021/09/06 04:14:15;;;;;;;4.88;3.17;;;11.60;66.50;;;11.10;52.35;95657.03;5015140;28;20215;-79
2021/09/06 04:16:47;;;;;;;6.50;3.45;;;11.60;66.60;;;11.08;52.17;95656.41;5013156;28;20223;-78
2021/09/06 04:19:16;;;;;;;6.05;3.15;;;11.70;66.60;;;11.05;52.64;95650.50;5010188;28;20562;-79
2021/09/06 04:21:45;;;;;;;4.13;3.28;;;11.60;66.70;;;11.03;52.52;95656.91;5011738;28;20389;-79
2021/09/06 04:24:13;;;;;;;4.15;3.20;;;11.60;66.70;;;11.01;52.51;95656.25;5011367;28;20669;-79
2021/09/06 04:26:40;;;;;;;5.20;3.50;;;11.50;66.70;;;11.00;52.39;95652.84;5030620;28;20248;-79
2021/09/06 04:29:08;;;;;;;4.78;3.22;;;11.50;66.80;;;11.00;52.64;95657.28;5014388;28;20209;-78
2021/09/06 04:31:36;;;;;;;4.80;3.28;;;11.50;66.80;;;11.00;52.68;95657.28;5015028;28;20229;-79
2021/09/06 04:34:04;;;;;;;5.25;3.38;;;11.50;66.90;;;10.99;52.72;95661.69;5012731;28;20296;-79
2021/09/06 04:36:34;;;;;;;4.68;3.22;;;11.50;67.00;;;10.98;52.91;95665.31;5009883;28;20690;-78
2021/09/06 04:39:03;;;;;;;4.55;3.20;;;11.50;67.00;;;10.98;52.67;95665.31;4989342;28;20588;-79
2021/09/06 04:41:31;;;;;;;4.40;2.85;;;11.50;67.10;;;10.99;52.79;95669.56;5014439;28;20221;-78
2021/09/06 04:43:59;;;;;;;6.13;3.28;;;11.40;67.10;;;10.98;52.40;95667.13;5015767;28;20197;-79
2021/09/06 04:46:27;;;;;;;5.75;3.45;;;11.50;67.30;;;11.01;52.88;95672.00;5014694;28;20328;-78
2021/09/06 04:48:56;;;;;;;3.25;2.60;;;11.50;67.20;;;11.03;52.92;95670.03;5012059;28;20255;-78
2021/09/06 04:51:24;;;;;;;5.10;2.88;;;11.40;67.20;;;11.06;52.91;95677.59;5014121;28;20213;-78
2021/09/06 04:53:55;;;;;;;5.60;3.10;;;11.40;67.30;;;11.09;52.97;95679.84;5009312;28;20586;-78
2021/09/06 04:56:24;;;;;;;4.50;3.13;;;11.50;67.40;;;11.13;52.97;95682.94;5014051;28;20216;-78
2021/09/06 04:58:55;;;;;;;4.40;3.10;;;11.50;67.50;;;11.16;52.90;95685.22;5008178;28;20213;-78
2021/09/06 05:01:23;;;;;;;3.88;2.80;;;11.50;67.50;;;11.18;52.95;95686.66;5005706;28;20225;-78
2021/09/06 05:03:51;;;;;;;4.95;2.90;;;11.50;67.50;;;11.24;52.82;95684.31;4998304;28;20197;-78
2021/09/06 05:06:18;;;;;;;3.13;2.83;;;11.50;67.60;;;11.28;53.24;95693.47;4981518;28;20348;-78
2021/09/06 05:08:46;;;;;;;4.65;3.00;;;11.60;67.70;;;11.35;53.10;95702.28;5014078;28;20189;-78
2021/09/06 05:11:13;;;;;;;4.80;3.03;;;11.60;67.80;;;11.41;53.06;95703.38;5033835;28;20239;-78
2021/09/06 05:13:40;;;;;;;4.22;2.83;;;11.60;67.80;;;11.41;53.13;95691.06;5015522;28;20192;-78
2021/09/06 05:16:12;;;;;;;4.72;3.35;;;11.70;68.00;;;11.56;53.05;95706.88;5009715;28;20579;-79
2021/09/06 05:18:39;;;;;;;4.78;3.20;;;11.70;67.90;;;11.63;53.27;95707.81;5024709;28;20651;-78
2021/09/06 05:21:06;;;;;;;5.00;3.28;;;11.70;67.90;;;11.67;52.96;95706.44;5012631;28;20213;-78
2021/09/06 05:23:34;;;;;;;4.63;3.40;;;11.80;68.00;;;11.75;53.10;95699.47;5018141;28;20204;-79
2021/09/06 05:26:03;;;;;;;4.88;3.55;;;11.90;68.20;;;11.88;53.37;95711.97;5020889;28;20249;-79
2021/09/06 05:28:30;;;;;;;7.30;5.28;;;12.00;68.30;;;11.97;53.06;95714.41;5011521;28;20623;-78
2021/09/06 05:30:57;;;;;;;7.60;6.00;;;12.00;68.40;;;12.06;53.04;95714.28;5011680;28;20219;-79
2021/09/06 05:33:30;;;;;;;8.07;6.20;;;12.10;68.40;;;12.17;53.25;95716.50;4996445;28;20205;-78
2021/09/06 05:35:57;;;;;;;8.45;5.45;;;12.20;68.40;;;12.28;53.09;95723.91;5003817;28;20231;-78
2021/09/06 05:38:25;;;;;;;7.15;5.00;;;12.30;68.40;;;12.38;53.11;95721.00;5031771;28;20634;-78
2021/09/06 05:41:19;;;;;;;5.28;3.92;;;12.40;68.40;;;12.50;52.93;95721.38;5020069;28;20240;-79
2021/09/06 05:43:48;;;;;;;4.55;3.30;;;12.50;68.50;;;12.60;53.11;95724.50;5015507;28;20228;-78
2021/09/06 05:46:16;;;;;;;5.68;3.65;;;12.60;68.50;;;12.70;53.11;95718.16;5013982;28;20247;-76
2021/09/06 05:48:44;;;;;;;4.20;3.25;;;12.70;68.60;;;12.81;53.10;95722.94;5028261;28;20213;-78
2021/09/06 05:51:12;;;;;;;4.13;3.20;;;12.80;68.60;;;12.93;53.04;95713.53;5007241;28;20578;-78
2021/09/06 05:53:57;;;;;;;5.53;3.03;;;12.90;68.50;;;13.05;52.92;95721.78;5016126;28;20208;-77
2021/09/06 05:56:25;;;;;;;6.13;3.20;;;13.00;68.50;;;13.16;52.94;95723.09;5012788;28;20212;-76
2021/09/06 05:58:55;;;;;;;5.30;3.40;;;13.10;68.50;;;13.27;53.13;95719.16;5014461;28;20742;-76
2021/09/06 06:01:24;;;;;;;7.15;3.20;;;13.20;68.60;;;13.37;52.94;95719.63;5023446;28;20244;-76
2021/09/06 06:03:53;;;;;;;4.97;3.25;;;13.40;68.60;;;13.50;52.78;95728.69;4996779;28;20208;-77
2021/09/06 06:06:26;;;;;;;5.13;3.30;;;13.40;68.50;;;13.59;52.60;95722.28;5006226;28;20300;-78
2021/09/06 06:08:57;;;;;;;5.05;3.47;;;13.50;68.40;;;13.66;52.52;95715.25;4982812;28;20205;-77
2021/09/06 06:11:25;;;;;;;4.25;3.05;;;13.60;68.30;;;13.76;52.75;95721.00;4996552;28;20708;-77
2021/09/06 06:13:52;;;;;;;5.35;3.42;;;13.60;68.30;;;13.85;52.64;95715.56;5012628;28;20200;-77
2021/09/06 06:16:21;;;;;;;5.65;3.50;;;13.80;68.20;;;13.96;52.57;95717.66;5011635;28;20279;-78
2021/09/06 06:18:51;;;;;;;4.55;3.42;;;13.80;68.20;;;14.05;52.60;95721.00;5017061;28;20204;-77
2021/09/06 06:21:21;;;;;;;5.78;3.72;;;14.00;68.30;;;14.17;52.43;95723.88;5014784;28;20580;-78
2021/09/06 06:23:59;;;;;;;5.05;3.30;;;14.10;68.10;;;14.24;52.37;95724.75;4999896;28;20211;-76
2021/09/06 06:26:40;;;;;;;5.88;3.25;;;14.20;68.10;;;14.32;52.31;95721.94;5012831;28;20220;-77
2021/09/06 06:29:10;;;;;;;4.28;3.15;;;14.30;68.10;;;14.43;52.17;95730.31;5015093;28;20188;-77
2021/09/06 06:31:40;;;;;;;4.20;3.03;;;14.30;68.10;;;14.52;52.24;95718.59;5013735;28;20325;-77
2021/09/06 06:34:09;;;;;;;4.63;3.33;;;14.40;68.10;;;14.60;51.80;95731.63;5020883;28;20218;-77
2021/09/06 06:36:38;;;;;;;4.90;3.00;;;14.40;67.90;;;14.67;51.78;95726.41;4994270;28;20223;-78
2021/09/06 06:39:17;;;;;;;4.53;3.25;;;14.60;67.90;;;14.77;52.14;95734.78;5017703;28;20631;-77
2021/09/06 06:41:51;;;;;;;4.47;3.47;;;14.60;67.90;;;14.85;51.91;95736.41;4997260;28;20236;-78
2021/09/06 06:44:18;;;;;;;5.43;3.20;;;14.70;67.80;;;14.92;51.84;95731.97;5015113;28;20193;-77
2021/09/06 06:46:46;;;;;;;4.18;3.00;;;14.80;67.80;;;14.99;51.68;95731.97;5017988;28;20777;-78
2021/09/06 06:49:14;;;;;;;3.95;2.97;;;14.90;67.70;;;15.07;51.68;95739.72;5005246;28;20270;-78
2021/09/06 06:51:42;;;;;;;5.15;3.00;;;14.90;67.80;;;15.16;51.56;95738.53;5026901;28;20221;-77
2021/09/06 06:54:10;;;;;;;6.22;2.92;;;15.00;67.70;;;15.26;51.71;95737.31;5019415;28;20266;-77
2021/09/06 06:56:39;;;;;;;4.25;3.33;;;15.10;67.90;;;15.34;51.60;95740.63;5005138;28;20212;-78
2021/09/06 06:59:10;;;;;;;4.35;3.33;;;15.10;67.70;;;15.43;51.39;95743.03;5025557;28;20228;-79
2021/09/06 07:01:38;;;;;;;4.35;3.22;;;15.30;67.60;;;15.49;51.43;95736.94;4994403;28;20244;-78
2021/09/06 07:04:06;;;;;;;4.97;3.40;;;15.30;67.50;;;15.56;51.05;95745.69;4994362;28;20621;-79
2021/09/06 07:06:37;;;;;;;5.45;3.38;;;15.40;67.50;;;15.61;51.05;95743.28;5020221;28;20224;-78
2021/09/06 07:09:04;;;;;;;7.70;3.42;;;15.50;67.70;;;15.71;51.04;95744.69;5028548;28;20196;-79
2021/09/06 07:11:32;;;;;;;6.10;3.30;;;15.50;67.60;;;15.79;51.32;95753.25;4997647;28;20231;-79
2021/09/06 07:14:02;;;;;;;5.03;3.28;;;15.60;67.60;;;15.86;51.26;95752.47;5010631;28;20212;-77
2021/09/06 07:16:29;;;;;;;4.95;3.55;;;15.70;67.50;;;15.93;50.80;95755.91;5017740;28;20683;-78
2021/09/06 07:18:58;;;;;;;4.47;3.30;;;15.70;67.50;;;15.99;50.85;95753.28;5011928;28;20196;-78
2021/09/06 07:21:26;;;;;;;4.47;3.17;;;15.80;67.30;;;16.06;51.02;95760.38;5011599;28;20235;-78
2021/09/06 07:23:54;;;;;;;4.47;3.40;;;15.90;67.50;;;16.15;50.81;95752.03;5015191;28;20662;-77
2021/09/06 07:26:22;;;;;;;3.97;3.30;;;15.90;67.50;;;16.22;51.10;95759.97;5011105;28;20224;-78
2021/09/06 07:28:53;;;;;;;5.65;3.42;;;16.00;67.40;;;16.31;50.61;95763.22;5011011;28;20212;-79
2021/09/06 07:31:21;;;;;;;4.35;3.17;;;16.10;67.30;;;16.38;50.50;95760.53;5021979;28;20226;-78
2021/09/06 07:33:48;;;;;;;4.50;3.28;;;16.20;67.30;;;16.47;50.43;95764.59;5031015;28;20226;-78
2021/09/06 07:36:16;;;;;;;3.97;3.08;;;16.20;67.20;;;16.55;50.43;95779.44;5026722;28;20204;-78
2021/09/06 07:38:44;;;;;;;4.07;3.20;;;16.30;67.30;;;16.61;50.51;95775.97;5007466;28;20236;-77
2021/09/06 07:41:12;;;;;;;5.40;3.53;;;16.40;67.30;;;16.68;50.78;95776.75;5010990;28;20260;-78
2021/09/06 07:43:41;;;;;;;4.85;3.20;;;16.40;67.40;;;16.78;50.16;95781.63;5019378;28;20287;-78
2021/09/06 07:46:08;;;;;;;4.43;3.35;;;16.50;67.40;;;16.88;50.82;95782.00;5010918;28;20698;-78
2021/09/06 07:48:36;;;;;;;4.25;3.22;;;16.50;67.20;;;16.93;50.17;95776.06;5011196;28;20193;-78
2021/09/06 07:51:03;;;;;;;4.63;3.35;;;16.60;67.30;;;17.07;50.54;95782.16;4994381;28;20213;-77
2021/09/06 07:53:31;;;;;;;5.13;3.70;;;16.80;67.30;;;17.15;50.00;95778.44;5010192;28;20304;-79
2021/09/06 07:56:00;;;;;;;5.63;3.58;;;16.80;67.40;;;17.24;50.72;95785.13;5006312;28;20283;-77
2021/09/06 07:58:30;;;;;;;6.38;3.50;;;17.00;67.50;;;17.33;50.50;95781.19;5013224;28;20219;-78
2021/09/06 08:00:58;;;;;;;5.72;3.50;;;17.00;67.20;;;17.44;50.32;95785.84;5015301;28;20224;-78
2021/09/06 08:03:26;;;;;;;5.53;3.45;;;17.10;67.30;;;17.54;49.99;95782.72;5030777;28;20561;-78
2021/09/06 08:05:56;;;;;;;5.45;3.60;;;17.20;67.30;;;17.63;50.38;95788.56;5034380;28;20582;-78
2021/09/06 08:08:23;;;;;;;5.30;3.75;;;17.20;67.40;;;17.73;49.89;95788.88;5018492;28;20623;-78
2021/09/06 08:10:52;;;;;;;4.75;3.53;;;17.30;67.50;;;17.84;50.03;95791.88;5025003;28;20213;-79
2021/09/06 08:13:31;;;;;;;4.70;3.65;;;17.40;67.30;;;17.95;49.83;95788.56;5014656;28;20251;-78
2021/09/06 08:15:58;;;;;;;6.82;3.90;;;17.50;67.50;;;18.05;50.11;95788.91;5011234;28;20225;-77
2021/09/06 08:18:26;;;;;;;6.78;3.90;;;17.60;67.40;;;18.16;50.03;95787.38;5013942;28;20571;-78
2021/09/06 08:20:53;;;;;;;4.80;3.88;;;17.70;67.50;;;18.30;49.97;95790.72;5027759;28;20213;-78
2021/09/06 08:23:23;;;;;;;9.18;4.25;;;17.90;67.70;;;18.43;49.67;95791.63;5006165;28;20246;-79
2021/09/06 08:25:57;;;;;;;5.88;4.50;;;17.90;67.50;;;18.52;50.25;95796.41;5015379;28;20220;-79
2021/09/06 08:28:25;;;;;;;6.05;4.50;;;18.00;67.50;;;18.64;49.55;95785.88;4998581;28;20220;-79
2021/09/06 08:30:53;;;;;;;6.30;4.50;;;18.10;67.30;;;18.77;49.72;95789.41;5027072;28;20212;-79
2021/09/06 08:33:23;;;;;;;5.10;4.07;;;18.20;67.30;;;18.87;49.55;95789.69;5010851;28;20196;-79
2021/09/06 08:35:50;;;;;;;6.25;4.18;;;18.40;68.20;;;18.98;49.28;95789.00;5017029;28;20239;-79
2021/09/06 08:38:20;;;;;;;5.47;4.35;;;18.50;67.40;;;19.12;49.60;95799.47;5020119;28;20231;-79
2021/09/06 08:40:52;;;;;;;5.80;4.60;;;18.60;67.20;;;19.22;49.22;95791.75;5005527;28;20287;-78
2021/09/06 08:43:26;;;;;;;8.45;5.00;;;18.70;67.10;;;19.33;49.62;95790.19;5030379;28;20325;-78
2021/09/06 08:45:54;;;;;;;7.25;5.10;;;18.80;67.10;;;19.44;49.23;95791.28;4997413;28;20278;-79
2021/09/06 08:48:22;;;;;;;7.97;6.10;;;18.90;67.20;;;19.56;49.39;95794.00;5009533;28;20224;-79
2021/09/06 08:50:50;;;;;;;8.48;5.78;;;19.00;67.30;;;19.69;49.24;95791.13;4995511;28;20298;-79
2021/09/06 08:53:19;;;;;;;7.85;5.85;;;19.10;67.10;;;19.76;49.07;95789.19;5013693;28;20248;-78
2021/09/06 08:55:46;;;;;;;8.48;5.95;;;19.30;67.00;;;19.90;48.87;95781.81;4997934;28;20220;-78
2021/09/06 08:58:35;;;;;;;6.63;5.30;;;19.30;67.10;;;20.04;48.63;95787.72;5003779;28;20351;-77
2021/09/06 09:01:02;;;;;;;7.13;5.22;;;19.40;66.80;;;20.13;48.56;95781.03;5014934;28;20208;-79
2021/09/06 09:04:22;;;;;;;9.88;6.53;;;19.60;66.90;;;20.23;48.53;95780.47;5014710;28;20219;-79
2021/09/06 09:07:14;;;;;;;8.73;6.68;;;19.70;66.60;;;20.34;48.82;95778.03;5032049;28;20705;-79
2021/09/06 09:09:59;;;;;;;12.25;8.85;;;19.80;66.90;;;20.52;48.49;95785.06;4999236;28;20275;-79
2021/09/06 09:13:10;;;;;;;9.68;7.07;;;19.90;66.70;;;20.65;48.63;95779.50;5012864;28;20193;-79
2021/09/06 09:15:54;;;;;;;8.73;6.88;;;20.10;66.40;;;20.77;48.07;95788.31;5016489;28;20687;-79
2021/09/06 09:18:35;;;;;;;7.97;6.28;;;20.20;66.20;;;20.89;47.90;95793.63;5027915;28;20208;-79
2021/09/06 09:21:26;;;;;;;9.07;6.68;;;20.30;66.20;;;21.01;48.03;95793.63;4997860;28;20221;-79
2021/09/06 09:24:21;;;;;;;9.52;6.70;;;20.40;66.20;;;21.14;47.96;95789.88;5010863;28;20710;-79
2021/09/06 09:27:16;;;;;;;8.02;6.50;;;20.50;66.10;;;21.25;47.86;95790.84;5014449;28;20224;-78
2021/09/06 09:29:52;;;;;;;8.35;6.07;;;20.60;66.10;;;21.36;48.01;95784.69;5011345;28;20208;-79
2021/09/06 09:32:42;;;;;;;8.43;6.35;;;20.70;66.00;;;21.48;47.14;95795.28;5018770;28;20218;-79
2021/09/06 09:35:32;;;;;;;8.82;6.65;;;20.90;65.70;;;21.54;47.17;95780.97;5018681;28;20702;-79
2021/09/06 09:38:06;;;;;;;8.43;6.45;;;20.90;65.50;;;21.67;47.17;95781.78;5002206;28;20204;-79
2021/09/06 09:40:41;;;;;;;7.85;6.10;;;21.10;65.60;;;21.77;47.16;95778.47;5013182;28;20248;-79
2021/09/06 09:43:09;;;;;;;9.13;6.57;;;21.20;65.50;;;21.90;47.06;95778.97;5020011;28;21715;-79
2021/09/06 09:45:37;;;;;;;10.35;6.85;;;21.20;65.60;;;22.01;46.61;95782.63;5015490;28;20693;-78
2021/09/06 09:48:11;;;;;;;10.10;7.32;;;21.40;65.30;;;22.12;46.38;95780.09;5011384;28;20227;-78
2021/09/06 09:50:39;;;;;;;7.95;6.68;;;21.40;64.60;;;22.19;46.42;95784.22;5008076;28;20294;-78
2021/09/06 09:53:08;;;;;;;9.27;7.13;;;21.50;64.60;;;22.29;46.14;95777.41;5001548;28;20201;-79
2021/09/06 09:55:40;;;;;;;8.93;6.90;;;21.60;64.80;;;22.37;45.67;95777.81;5015872;28;20213;-78
2021/09/06 09:58:08;;;;;;;9.52;7.15;;;21.70;64.80;;;22.43;45.84;95769.91;5023565;28;20203;-78
2021/09/06 10:00:37;;;;;;;9.18;6.90;;;21.80;64.90;;;22.52;45.51;95774.59;5009849;28;20204;-78
2021/09/06 10:03:06;;;;;;;9.65;7.40;;;21.90;64.20;;;22.61;45.45;95766.94;5023238;28;20223;-78
2021/09/06 10:05:38;;;;;;;8.35;6.72;;;22.00;64.40;;;22.69;45.02;95773.72;5019220;28;20257;-80
2021/09/06 10:08:15;;;;;;;10.27;7.35;;;22.00;64.20;;;22.78;45.26;95769.56;5010407;28;20315;-77
2021/09/06 10:10:43;;;;;;;10.15;6.85;;;22.10;64.00;;;22.86;44.86;95766.47;5012134;28;20237;-78
2021/09/06 10:13:18;;;;;;;9.07;7.07;;;22.20;64.20;;;22.93;44.76;95771.63;5021299;28;20197;-79
2021/09/06 10:16:02;;;;;;;9.38;7.20;;;22.30;63.70;;;23.02;44.48;95770.13;5010457;28;20227;-79
2021/09/06 10:18:42;;;;;;;7.72;6.93;;;22.40;63.60;;;23.10;44.40;95762.72;5012858;28;20719;-78
2021/09/06 10:21:14;;;;;;;8.73;6.32;;;22.50;63.80;;;23.19;44.45;95763.91;5019925;28;20236;-76
2021/09/06 10:23:46;;;;;;;8.38;6.82;;;22.50;63.90;;;23.30;44.60;95765.66;5008496;28;20208;-78
2021/09/06 10:26:15;;;;;;;10.10;7.65;;;22.60;63.90;;;23.44;44.44;95759.91;5024104;28;20298;-79
2021/09/06 10:28:43;;;;;;;9.77;8.07;;;22.70;63.90;;;23.55;44.14;95761.63;5007471;28;20239;-79
2021/09/06 10:31:19;;;;;;;11.20;7.20;;;22.80;63.60;;;23.65;43.92;95756.34;5009286;28;20692;-79
2021/09/06 10:33:58;;;;;;;9.75;6.95;;;22.90;63.00;;;23.72;44.11;95750.00;5012691;28;20200;-78
2021/09/06 10:36:28;;;;;;;9.05;7.43;;;23.00;63.40;;;23.83;44.00;95757.03;5027116;28;20232;-77